sensor_id;sensor_type;location;lat;lon;timestamp;P1;durP1;ratioP1;P2;durP2;ratioP2
7621;SDS011;3852;52.284;8.032;2022-12-10T00:01:12;37.20;;;17.10;;
7621;SDS011;3852;52.284;8.032;2022-12-10T00:03:42;32.03;;;16.30;;
7621;SDS011;3852;52.284;8.032;2022-12-10T00:06:10;28.87;;;16.00;;
7621;SDS011;3852;52.284;8.032;2022-12-10T00:08:39;30.50;;;16.57;;
7621;SDS011;3852;52.284;8.032;2022-12-10T00:11:06;29.70;;;16.47;;
7621;SDS011;3852;52.284;8.032;2022-12-10T00:13:35;33.07;;;17.67;;
7621;SDS011;3852;52.284;8.032;2022-12-10T00:16:03;32.97;;;17.43;;
7621;SDS011;3852;52.284;8.032;2022-12-10T00:18:32;31.53;;;17.50;;
7621;SDS011;3852;52.284;8.032;2022-12-10T00:21:01;33.90;;;18.00;;
7621;SDS011;3852;52.284;8.032;2022-12-10T00:23:29;32.57;;;18.83;;
7621;SDS011;3852;52.284;8.032;2022-12-10T00:26:03;34.93;;;18.33;;
7621;SDS011;3852;52.284;8.032;2022-12-10T00:28:31;36.73;;;19.30;;
7621;SDS011;3852;52.284;8.032;2022-12-10T00:31:04;34.70;;;18.57;;
7621;SDS011;3852;52.284;8.032;2022-12-10T00:33:35;36.67;;;19.43;;
7621;SDS011;3852;52.284;8.032;2022-12-10T00:36:05;36.83;;;19.33;;
7621;SDS011;3852;52.284;8.032;2022-12-10T00:38:38;35.40;;;19.73;;
7621;SDS011;3852;52.284;8.032;2022-12-10T00:41:05;36.30;;;19.83;;
7621;SDS011;3852;52.284;8.032;2022-12-10T00:43:31;38.43;;;20.70;;
7621;SDS011;3852;52.284;8.032;2022-12-10T00:45:58;44.47;;;22.27;;
7621;SDS011;3852;52.284;8.032;2022-12-10T00:48:24;37.63;;;20.30;;
7621;SDS011;3852;52.284;8.032;2022-12-10T00:50:59;45.40;;;22.30;;
7621;SDS011;3852;52.284;8.032;2022-12-10T00:53:35;38.13;;;20.50;;
7621;SDS011;3852;52.284;8.032;2022-12-10T00:56:02;41.37;;;21.20;;
7621;SDS011;3852;52.284;8.032;2022-12-10T00:58:32;39.47;;;21.17;;
7621;SDS011;3852;52.284;8.032;2022-12-10T01:01:33;40.83;;;22.43;;
7621;SDS011;3852;52.284;8.032;2022-12-10T01:04:01;42.80;;;22.43;;
7621;SDS011;3852;52.284;8.032;2022-12-10T01:09:13;42.13;;;23.00;;
7621;SDS011;3852;52.284;8.032;2022-12-10T01:11:47;47.67;;;25.80;;
7621;SDS011;3852;52.284;8.032;2022-12-10T01:14:15;51.20;;;27.40;;
7621;SDS011;3852;52.284;8.032;2022-12-10T01:16:45;47.53;;;26.83;;
7621;SDS011;3852;52.284;8.032;2022-12-10T01:19:11;50.60;;;27.13;;
7621;SDS011;3852;52.284;8.032;2022-12-10T01:21:37;49.33;;;26.03;;
7621;SDS011;3852;52.284;8.032;2022-12-10T01:24:04;48.23;;;25.80;;
7621;SDS011;3852;52.284;8.032;2022-12-10T01:26:31;49.23;;;27.03;;
7621;SDS011;3852;52.284;8.032;2022-12-10T01:28:59;53.60;;;27.20;;
7621;SDS011;3852;52.284;8.032;2022-12-10T01:31:30;51.83;;;26.93;;
7621;SDS011;3852;52.284;8.032;2022-12-10T01:33:59;53.33;;;27.50;;
7621;SDS011;3852;52.284;8.032;2022-12-10T01:36:27;55.43;;;27.60;;
7621;SDS011;3852;52.284;8.032;2022-12-10T01:38:55;49.97;;;27.37;;
7621;SDS011;3852;52.284;8.032;2022-12-10T01:41:23;56.90;;;28.50;;
7621;SDS011;3852;52.284;8.032;2022-12-10T01:46:34;46.97;;;25.27;;
7621;SDS011;3852;52.284;8.032;2022-12-10T01:49:10;45.33;;;25.43;;
7621;SDS011;3852;52.284;8.032;2022-12-10T01:51:41;46.53;;;24.90;;
7621;SDS011;3852;52.284;8.032;2022-12-10T01:54:13;46.03;;;24.67;;
7621;SDS011;3852;52.284;8.032;2022-12-10T01:56:45;47.93;;;26.20;;
7621;SDS011;3852;52.284;8.032;2022-12-10T01:59:16;46.53;;;25.77;;
7621;SDS011;3852;52.284;8.032;2022-12-10T02:01:46;47.97;;;26.73;;
7621;SDS011;3852;52.284;8.032;2022-12-10T02:10:48;48.20;;;25.53;;
7621;SDS011;3852;52.284;8.032;2022-12-10T02:14:15;47.63;;;25.30;;
7621;SDS011;3852;52.284;8.032;2022-12-10T02:17:17;46.70;;;24.30;;
7621;SDS011;3852;52.284;8.032;2022-12-10T02:22:39;49.70;;;26.53;;
7621;SDS011;3852;52.284;8.032;2022-12-10T02:25:32;50.60;;;26.47;;
7621;SDS011;3852;52.284;8.032;2022-12-10T02:28:10;49.90;;;26.60;;
7621;SDS011;3852;52.284;8.032;2022-12-10T02:30:56;44.40;;;24.27;;
7621;SDS011;3852;52.284;8.032;2022-12-10T02:33:25;42.53;;;24.33;;
7621;SDS011;3852;52.284;8.032;2022-12-10T02:35:52;53.20;;;26.87;;
7621;SDS011;3852;52.284;8.032;2022-12-10T02:38:24;43.93;;;24.37;;
7621;SDS011;3852;52.284;8.032;2022-12-10T02:40:59;49.73;;;25.80;;
7621;SDS011;3852;52.284;8.032;2022-12-10T02:43:39;42.73;;;24.93;;
7621;SDS011;3852;52.284;8.032;2022-12-10T02:46:06;45.43;;;24.33;;
7621;SDS011;3852;52.284;8.032;2022-12-10T02:48:32;45.83;;;25.40;;
7621;SDS011;3852;52.284;8.032;2022-12-10T02:51:00;46.40;;;25.70;;
7621;SDS011;3852;52.284;8.032;2022-12-10T02:53:27;50.17;;;25.67;;
7621;SDS011;3852;52.284;8.032;2022-12-10T02:55:55;52.80;;;26.27;;
7621;SDS011;3852;52.284;8.032;2022-12-10T03:10:44;47.03;;;25.27;;
7621;SDS011;3852;52.284;8.032;2022-12-10T03:16:53;38.90;;;20.33;;
7621;SDS011;3852;52.284;8.032;2022-12-10T03:19:24;38.97;;;21.30;;
7621;SDS011;3852;52.284;8.032;2022-12-10T03:21:58;43.10;;;23.93;;
7621;SDS011;3852;52.284;8.032;2022-12-10T03:24:27;45.27;;;25.27;;
7621;SDS011;3852;52.284;8.032;2022-12-10T03:26:53;42.77;;;23.73;;
7621;SDS011;3852;52.284;8.032;2022-12-10T03:29:24;45.93;;;23.83;;
7621;SDS011;3852;52.284;8.032;2022-12-10T03:32:18;41.97;;;23.03;;
7621;SDS011;3852;52.284;8.032;2022-12-10T03:34:47;43.60;;;23.60;;
7621;SDS011;3852;52.284;8.032;2022-12-10T03:37:16;39.03;;;22.60;;
7621;SDS011;3852;52.284;8.032;2022-12-10T03:39:42;51.53;;;27.40;;
7621;SDS011;3852;52.284;8.032;2022-12-10T03:42:08;47.73;;;25.77;;
7621;SDS011;3852;52.284;8.032;2022-12-10T03:44:35;45.93;;;23.83;;
7621;SDS011;3852;52.284;8.032;2022-12-10T03:47:03;46.23;;;24.90;;
7621;SDS011;3852;52.284;8.032;2022-12-10T03:49:35;49.13;;;25.20;;
7621;SDS011;3852;52.284;8.032;2022-12-10T03:52:00;43.00;;;22.00;;
7621;SDS011;3852;52.284;8.032;2022-12-10T03:54:27;41.30;;;22.20;;
7621;SDS011;3852;52.284;8.032;2022-12-10T03:56:53;38.20;;;19.97;;
7621;SDS011;3852;52.284;8.032;2022-12-10T03:59:19;36.60;;;20.53;;
7621;SDS011;3852;52.284;8.032;2022-12-10T04:01:45;30.53;;;16.53;;
7621;SDS011;3852;52.284;8.032;2022-12-10T04:04:11;26.83;;;16.80;;
7621;SDS011;3852;52.284;8.032;2022-12-10T04:06:37;29.37;;;16.47;;
7621;SDS011;3852;52.284;8.032;2022-12-10T04:09:04;26.47;;;15.83;;
7621;SDS011;3852;52.284;8.032;2022-12-10T04:11:30;26.53;;;15.87;;
7621;SDS011;3852;52.284;8.032;2022-12-10T04:13:56;28.23;;;16.43;;
7621;SDS011;3852;52.284;8.032;2022-12-10T04:16:40;28.20;;;16.63;;
7621;SDS011;3852;52.284;8.032;2022-12-10T04:21:35;26.87;;;15.57;;
7621;SDS011;3852;52.284;8.032;2022-12-10T04:24:23;25.43;;;13.93;;
7621;SDS011;3852;52.284;8.032;2022-12-10T04:27:15;21.93;;;13.27;;
7621;SDS011;3852;52.284;8.032;2022-12-10T04:30:14;23.17;;;13.83;;
7621;SDS011;3852;52.284;8.032;2022-12-10T04:32:40;21.73;;;13.43;;
7621;SDS011;3852;52.284;8.032;2022-12-10T04:35:06;21.97;;;13.47;;
7621;SDS011;3852;52.284;8.032;2022-12-10T04:37:33;20.97;;;12.70;;
7621;SDS011;3852;52.284;8.032;2022-12-10T04:39:59;22.00;;;12.97;;
7621;SDS011;3852;52.284;8.032;2022-12-10T04:42:25;24.43;;;14.27;;
7621;SDS011;3852;52.284;8.032;2022-12-10T04:44:50;23.10;;;13.97;;
7621;SDS011;3852;52.284;8.032;2022-12-10T04:47:16;24.30;;;13.83;;
7621;SDS011;3852;52.284;8.032;2022-12-10T04:49:42;25.73;;;14.87;;
7621;SDS011;3852;52.284;8.032;2022-12-10T04:52:10;24.00;;;14.87;;
7621;SDS011;3852;52.284;8.032;2022-12-10T04:54:38;25.43;;;15.17;;
7621;SDS011;3852;52.284;8.032;2022-12-10T04:57:06;23.40;;;13.73;;
7621;SDS011;3852;52.284;8.032;2022-12-10T04:59:32;24.70;;;14.57;;
7621;SDS011;3852;52.284;8.032;2022-12-10T05:02:00;23.47;;;14.90;;
7621;SDS011;3852;52.284;8.032;2022-12-10T05:04:28;24.23;;;15.10;;
7621;SDS011;3852;52.284;8.032;2022-12-10T05:06:57;25.67;;;15.20;;
7621;SDS011;3852;52.284;8.032;2022-12-10T05:09:23;27.17;;;15.57;;
7621;SDS011;3852;52.284;8.032;2022-12-10T05:11:48;25.67;;;14.30;;
7621;SDS011;3852;52.284;8.032;2022-12-10T05:14:14;24.00;;;15.53;;
7621;SDS011;3852;52.284;8.032;2022-12-10T05:16:40;24.30;;;15.20;;
7621;SDS011;3852;52.284;8.032;2022-12-10T05:19:08;25.97;;;15.10;;
7621;SDS011;3852;52.284;8.032;2022-12-10T05:21:35;25.83;;;15.60;;
7621;SDS011;3852;52.284;8.032;2022-12-10T05:24:19;23.07;;;14.60;;
7621;SDS011;3852;52.284;8.032;2022-12-10T05:26:45;29.60;;;17.33;;
7621;SDS011;3852;52.284;8.032;2022-12-10T05:29:15;24.30;;;14.87;;
7621;SDS011;3852;52.284;8.032;2022-12-10T05:31:41;28.17;;;16.57;;
7621;SDS011;3852;52.284;8.032;2022-12-10T05:34:08;28.87;;;17.73;;
7621;SDS011;3852;52.284;8.032;2022-12-10T05:36:36;26.37;;;15.70;;
7621;SDS011;3852;52.284;8.032;2022-12-10T05:39:02;26.33;;;16.57;;
7621;SDS011;3852;52.284;8.032;2022-12-10T05:41:29;28.57;;;17.60;;
7621;SDS011;3852;52.284;8.032;2022-12-10T05:43:58;25.47;;;16.33;;
7621;SDS011;3852;52.284;8.032;2022-12-10T05:46:28;29.37;;;17.60;;
7621;SDS011;3852;52.284;8.032;2022-12-10T05:48:56;27.70;;;16.63;;
7621;SDS011;3852;52.284;8.032;2022-12-10T05:51:25;24.63;;;15.80;;
7621;SDS011;3852;52.284;8.032;2022-12-10T05:53:56;28.10;;;17.00;;
7621;SDS011;3852;52.284;8.032;2022-12-10T05:56:24;28.97;;;17.37;;
7621;SDS011;3852;52.284;8.032;2022-12-10T05:58:51;28.67;;;17.03;;
7621;SDS011;3852;52.284;8.032;2022-12-10T06:01:23;29.57;;;18.07;;
7621;SDS011;3852;52.284;8.032;2022-12-10T06:03:51;33.70;;;18.70;;
7621;SDS011;3852;52.284;8.032;2022-12-10T06:06:21;28.13;;;16.97;;
7621;SDS011;3852;52.284;8.032;2022-12-10T06:08:49;28.53;;;17.93;;
7621;SDS011;3852;52.284;8.032;2022-12-10T06:11:18;28.67;;;17.80;;
7621;SDS011;3852;52.284;8.032;2022-12-10T06:13:44;28.27;;;17.57;;
7621;SDS011;3852;52.284;8.032;2022-12-10T06:16:11;26.33;;;17.37;;
7621;SDS011;3852;52.284;8.032;2022-12-10T06:18:39;28.30;;;17.30;;
7621;SDS011;3852;52.284;8.032;2022-12-10T06:21:06;29.97;;;17.50;;
7621;SDS011;3852;52.284;8.032;2022-12-10T06:23:35;26.33;;;16.87;;
7621;SDS011;3852;52.284;8.032;2022-12-10T06:26:04;32.07;;;18.80;;
7621;SDS011;3852;52.284;8.032;2022-12-10T06:28:35;28.40;;;17.53;;
7621;SDS011;3852;52.284;8.032;2022-12-10T06:31:02;28.63;;;17.77;;
7621;SDS011;3852;52.284;8.032;2022-12-10T06:33:27;29.67;;;17.90;;
7621;SDS011;3852;52.284;8.032;2022-12-10T06:35:56;31.00;;;18.00;;
7621;SDS011;3852;52.284;8.032;2022-12-10T06:38:21;31.63;;;18.77;;
7621;SDS011;3852;52.284;8.032;2022-12-10T06:40:47;30.53;;;17.97;;
7621;SDS011;3852;52.284;8.032;2022-12-10T06:43:13;25.80;;;16.70;;
7621;SDS011;3852;52.284;8.032;2022-12-10T06:45:40;30.00;;;17.77;;
7621;SDS011;3852;52.284;8.032;2022-12-10T06:48:07;29.53;;;17.67;;
7621;SDS011;3852;52.284;8.032;2022-12-10T06:50:33;30.30;;;17.87;;
7621;SDS011;3852;52.284;8.032;2022-12-10T06:53:00;31.13;;;18.33;;
7621;SDS011;3852;52.284;8.032;2022-12-10T06:55:26;28.10;;;16.80;;
7621;SDS011;3852;52.284;8.032;2022-12-10T06:57:52;27.33;;;16.77;;
7621;SDS011;3852;52.284;8.032;2022-12-10T07:00:19;29.67;;;18.50;;
7621;SDS011;3852;52.284;8.032;2022-12-10T07:02:45;28.50;;;18.47;;
7621;SDS011;3852;52.284;8.032;2022-12-10T07:05:12;31.70;;;19.23;;
7621;SDS011;3852;52.284;8.032;2022-12-10T07:07:38;30.97;;;18.53;;
7621;SDS011;3852;52.284;8.032;2022-12-10T07:10:04;30.20;;;18.67;;
7621;SDS011;3852;52.284;8.032;2022-12-10T07:12:30;28.93;;;18.10;;
7621;SDS011;3852;52.284;8.032;2022-12-10T07:14:56;30.23;;;18.17;;
7621;SDS011;3852;52.284;8.032;2022-12-10T07:17:22;27.67;;;17.57;;
7621;SDS011;3852;52.284;8.032;2022-12-10T07:19:48;28.70;;;18.13;;
7621;SDS011;3852;52.284;8.032;2022-12-10T07:22:15;29.97;;;18.17;;
7621;SDS011;3852;52.284;8.032;2022-12-10T07:24:43;29.27;;;17.97;;
7621;SDS011;3852;52.284;8.032;2022-12-10T07:27:09;29.30;;;18.83;;
7621;SDS011;3852;52.284;8.032;2022-12-10T07:29:35;31.13;;;18.57;;
7621;SDS011;3852;52.284;8.032;2022-12-10T07:32:01;29.43;;;17.60;;
7621;SDS011;3852;52.284;8.032;2022-12-10T07:34:26;32.97;;;19.23;;
7621;SDS011;3852;52.284;8.032;2022-12-10T07:36:52;31.00;;;18.40;;
7621;SDS011;3852;52.284;8.032;2022-12-10T07:39:19;29.83;;;18.23;;
7621;SDS011;3852;52.284;8.032;2022-12-10T07:41:49;32.77;;;19.03;;
7621;SDS011;3852;52.284;8.032;2022-12-10T07:44:17;32.93;;;19.40;;
7621;SDS011;3852;52.284;8.032;2022-12-10T07:46:49;32.33;;;19.17;;
7621;SDS011;3852;52.284;8.032;2022-12-10T07:49:15;32.73;;;18.70;;
7621;SDS011;3852;52.284;8.032;2022-12-10T07:51:44;31.53;;;19.27;;
7621;SDS011;3852;52.284;8.032;2022-12-10T07:54:12;34.47;;;19.53;;
7621;SDS011;3852;52.284;8.032;2022-12-10T07:56:39;32.93;;;19.57;;
7621;SDS011;3852;52.284;8.032;2022-12-10T07:59:05;31.70;;;19.13;;
7621;SDS011;3852;52.284;8.032;2022-12-10T08:01:31;32.50;;;19.67;;
7621;SDS011;3852;52.284;8.032;2022-12-10T08:03:57;33.83;;;20.53;;
7621;SDS011;3852;52.284;8.032;2022-12-10T08:06:23;34.23;;;20.13;;
7621;SDS011;3852;52.284;8.032;2022-12-10T08:08:52;33.47;;;20.30;;
7621;SDS011;3852;52.284;8.032;2022-12-10T08:11:19;35.20;;;20.27;;
7621;SDS011;3852;52.284;8.032;2022-12-10T08:13:46;28.40;;;18.23;;
7621;SDS011;3852;52.284;8.032;2022-12-10T08:16:15;31.90;;;20.30;;
7621;SDS011;3852;52.284;8.032;2022-12-10T08:18:44;33.57;;;20.27;;
7621;SDS011;3852;52.284;8.032;2022-12-10T08:21:14;35.30;;;20.43;;
7621;SDS011;3852;52.284;8.032;2022-12-10T08:23:44;34.77;;;20.17;;
7621;SDS011;3852;52.284;8.032;2022-12-10T08:26:12;32.60;;;20.43;;
7621;SDS011;3852;52.284;8.032;2022-12-10T08:28:41;33.77;;;20.07;;
7621;SDS011;3852;52.284;8.032;2022-12-10T08:31:08;33.73;;;20.97;;
7621;SDS011;3852;52.284;8.032;2022-12-10T08:33:37;33.80;;;20.43;;
7621;SDS011;3852;52.284;8.032;2022-12-10T08:36:04;31.13;;;19.03;;
7621;SDS011;3852;52.284;8.032;2022-12-10T08:38:32;34.47;;;20.70;;
7621;SDS011;3852;52.284;8.032;2022-12-10T08:40:59;36.83;;;20.93;;
7621;SDS011;3852;52.284;8.032;2022-12-10T08:43:30;32.80;;;19.03;;
7621;SDS011;3852;52.284;8.032;2022-12-10T08:45:57;31.23;;;18.57;;
7621;SDS011;3852;52.284;8.032;2022-12-10T08:48:24;29.83;;;18.07;;
7621;SDS011;3852;52.284;8.032;2022-12-10T08:50:49;27.27;;;17.20;;
7621;SDS011;3852;52.284;8.032;2022-12-10T08:53:15;27.53;;;17.10;;
7621;SDS011;3852;52.284;8.032;2022-12-10T08:55:41;29.60;;;17.53;;
7621;SDS011;3852;52.284;8.032;2022-12-10T08:58:07;31.07;;;18.83;;
7621;SDS011;3852;52.284;8.032;2022-12-10T09:00:35;33.67;;;18.57;;
7621;SDS011;3852;52.284;8.032;2022-12-10T09:03:02;31.87;;;18.50;;
7621;SDS011;3852;52.284;8.032;2022-12-10T09:05:28;30.90;;;18.97;;
7621;SDS011;3852;52.284;8.032;2022-12-10T09:07:55;30.97;;;18.67;;
7621;SDS011;3852;52.284;8.032;2022-12-10T09:10:21;28.87;;;17.80;;
7621;SDS011;3852;52.284;8.032;2022-12-10T09:12:47;32.50;;;19.17;;
7621;SDS011;3852;52.284;8.032;2022-12-10T09:15:13;30.33;;;18.10;;
7621;SDS011;3852;52.284;8.032;2022-12-10T09:17:39;30.30;;;19.17;;
7621;SDS011;3852;52.284;8.032;2022-12-10T09:20:05;34.90;;;19.23;;
7621;SDS011;3852;52.284;8.032;2022-12-10T09:22:31;33.70;;;19.60;;
7621;SDS011;3852;52.284;8.032;2022-12-10T09:25:01;31.47;;;18.87;;
7621;SDS011;3852;52.284;8.032;2022-12-10T09:27:31;30.43;;;18.80;;
7621;SDS011;3852;52.284;8.032;2022-12-10T09:29:58;28.53;;;18.00;;
7621;SDS011;3852;52.284;8.032;2022-12-10T09:32:24;29.87;;;18.60;;
7621;SDS011;3852;52.284;8.032;2022-12-10T09:34:51;30.10;;;19.63;;
7621;SDS011;3852;52.284;8.032;2022-12-10T09:37:17;31.30;;;19.00;;
7621;SDS011;3852;52.284;8.032;2022-12-10T09:39:44;32.17;;;19.50;;
7621;SDS011;3852;52.284;8.032;2022-12-10T09:45:04;28.37;;;17.20;;
7621;SDS011;3852;52.284;8.032;2022-12-10T09:50:35;28.13;;;18.03;;
7621;SDS011;3852;52.284;8.032;2022-12-10T09:53:51;27.90;;;17.67;;
7621;SDS011;3852;52.284;8.032;2022-12-10T09:56:25;25.00;;;16.40;;
7621;SDS011;3852;52.284;8.032;2022-12-10T09:58:56;30.60;;;18.77;;
7621;SDS011;3852;52.284;8.032;2022-12-10T10:01:27;30.53;;;18.17;;
7621;SDS011;3852;52.284;8.032;2022-12-10T10:03:55;30.20;;;18.00;;
7621;SDS011;3852;52.284;8.032;2022-12-10T10:06:21;29.93;;;18.67;;
7621;SDS011;3852;52.284;8.032;2022-12-10T10:08:51;29.13;;;17.73;;
7621;SDS011;3852;52.284;8.032;2022-12-10T10:11:27;27.63;;;17.83;;
7621;SDS011;3852;52.284;8.032;2022-12-10T10:14:04;28.37;;;18.07;;
7621;SDS011;3852;52.284;8.032;2022-12-10T10:17:03;31.63;;;18.27;;
7621;SDS011;3852;52.284;8.032;2022-12-10T10:19:41;31.50;;;19.00;;
7621;SDS011;3852;52.284;8.032;2022-12-10T10:22:09;31.30;;;19.77;;
7621;SDS011;3852;52.284;8.032;2022-12-10T10:24:40;28.87;;;18.97;;
7621;SDS011;3852;52.284;8.032;2022-12-10T10:27:16;29.50;;;18.87;;
7621;SDS011;3852;52.284;8.032;2022-12-10T10:29:53;31.67;;;19.27;;
7621;SDS011;3852;52.284;8.032;2022-12-10T10:32:23;32.30;;;18.97;;
7621;SDS011;3852;52.284;8.032;2022-12-10T10:34:55;29.83;;;18.70;;
7621;SDS011;3852;52.284;8.032;2022-12-10T10:37:25;31.23;;;19.37;;
7621;SDS011;3852;52.284;8.032;2022-12-10T10:40:03;29.40;;;18.90;;
7621;SDS011;3852;52.284;8.032;2022-12-10T10:42:37;29.17;;;18.83;;
7621;SDS011;3852;52.284;8.032;2022-12-10T10:50:39;33.07;;;20.20;;
7621;SDS011;3852;52.284;8.032;2022-12-10T10:53:22;33.23;;;19.87;;
7621;SDS011;3852;52.284;8.032;2022-12-10T10:55:51;32.00;;;20.27;;
7621;SDS011;3852;52.284;8.032;2022-12-10T10:58:19;35.67;;;21.20;;
7621;SDS011;3852;52.284;8.032;2022-12-10T11:00:57;33.20;;;20.40;;
7621;SDS011;3852;52.284;8.032;2022-12-10T11:03:30;34.73;;;20.90;;
7621;SDS011;3852;52.284;8.032;2022-12-10T11:06:00;32.13;;;20.27;;
7621;SDS011;3852;52.284;8.032;2022-12-10T11:08:31;32.67;;;20.67;;
7621;SDS011;3852;52.284;8.032;2022-12-10T11:11:11;34.70;;;20.80;;
7621;SDS011;3852;52.284;8.032;2022-12-10T11:13:46;32.73;;;20.13;;
7621;SDS011;3852;52.284;8.032;2022-12-10T11:16:18;32.40;;;20.77;;
7621;SDS011;3852;52.284;8.032;2022-12-10T11:18:59;34.20;;;20.67;;
7621;SDS011;3852;52.284;8.032;2022-12-10T11:21:29;35.20;;;21.90;;
7621;SDS011;3852;52.284;8.032;2022-12-10T11:23:58;33.67;;;20.83;;
7621;SDS011;3852;52.284;8.032;2022-12-10T11:35:14;38.60;;;20.63;;
7621;SDS011;3852;52.284;8.032;2022-12-10T11:37:52;32.27;;;19.97;;
7621;SDS011;3852;52.284;8.032;2022-12-10T11:49:19;33.37;;;20.07;;
7621;SDS011;3852;52.284;8.032;2022-12-10T11:59:57;33.27;;;20.13;;
7621;SDS011;3852;52.284;8.032;2022-12-10T12:05:21;35.97;;;20.60;;
7621;SDS011;3852;52.284;8.032;2022-12-10T12:08:33;37.33;;;20.87;;
7621;SDS011;3852;52.284;8.032;2022-12-10T12:14:28;35.37;;;20.63;;
7621;SDS011;3852;52.284;8.032;2022-12-10T12:17:07;34.90;;;21.20;;
7621;SDS011;3852;52.284;8.032;2022-12-10T12:19:45;34.77;;;21.53;;
7621;SDS011;3852;52.284;8.032;2022-12-10T12:22:34;34.20;;;20.93;;
7621;SDS011;3852;52.284;8.032;2022-12-10T12:28:19;38.10;;;21.83;;
7621;SDS011;3852;52.284;8.032;2022-12-10T12:30:48;38.30;;;22.97;;
7621;SDS011;3852;52.284;8.032;2022-12-10T12:34:25;36.97;;;21.10;;
7621;SDS011;3852;52.284;8.032;2022-12-10T12:36:30;37.57;;;22.03;;
7621;SDS011;3852;52.284;8.032;2022-12-10T12:41:48;37.67;;;21.83;;
7621;SDS011;3852;52.284;8.032;2022-12-10T12:44:25;37.93;;;22.87;;
7621;SDS011;3852;52.284;8.032;2022-12-10T12:50:02;37.77;;;23.23;;
7621;SDS011;3852;52.284;8.032;2022-12-10T12:52:46;39.23;;;23.23;;
7621;SDS011;3852;52.284;8.032;2022-12-10T12:55:22;43.67;;;24.27;;
7621;SDS011;3852;52.284;8.032;2022-12-10T13:01:02;38.13;;;23.07;;
7621;SDS011;3852;52.284;8.032;2022-12-10T13:03:50;38.13;;;22.57;;
7621;SDS011;3852;52.284;8.032;2022-12-10T13:08:47;36.63;;;21.67;;
7621;SDS011;3852;52.284;8.032;2022-12-10T13:11:16;37.00;;;22.10;;
7621;SDS011;3852;52.284;8.032;2022-12-10T13:30:04;35.50;;;21.27;;
7621;SDS011;3852;52.284;8.032;2022-12-10T13:33:16;33.90;;;20.67;;
7621;SDS011;3852;52.284;8.032;2022-12-10T13:35:57;34.53;;;21.80;;
7621;SDS011;3852;52.284;8.032;2022-12-10T13:38:26;35.37;;;21.20;;
7621;SDS011;3852;52.284;8.032;2022-12-10T13:40:57;35.97;;;21.97;;
7621;SDS011;3852;52.284;8.032;2022-12-10T13:43:59;34.83;;;21.73;;
7621;SDS011;3852;52.284;8.032;2022-12-10T13:46:58;33.87;;;20.50;;
7621;SDS011;3852;52.284;8.032;2022-12-10T13:49:52;38.13;;;22.53;;
7621;SDS011;3852;52.284;8.032;2022-12-10T13:52:23;38.07;;;23.00;;
7621;SDS011;3852;52.284;8.032;2022-12-10T13:55:00;40.90;;;23.83;;
7621;SDS011;3852;52.284;8.032;2022-12-10T14:06:05;40.07;;;23.00;;
7621;SDS011;3852;52.284;8.032;2022-12-10T14:08:46;41.13;;;22.80;;
7621;SDS011;3852;52.284;8.032;2022-12-10T14:11:31;43.77;;;22.97;;
7621;SDS011;3852;52.284;8.032;2022-12-10T14:14:02;38.80;;;23.70;;
7621;SDS011;3852;52.284;8.032;2022-12-10T14:16:33;40.43;;;22.70;;
7621;SDS011;3852;52.284;8.032;2022-12-10T14:19:03;36.80;;;22.10;;
7621;SDS011;3852;52.284;8.032;2022-12-10T14:21:36;38.17;;;22.57;;
7621;SDS011;3852;52.284;8.032;2022-12-10T14:24:11;38.63;;;22.67;;
7621;SDS011;3852;52.284;8.032;2022-12-10T14:27:12;40.30;;;22.97;;
7621;SDS011;3852;52.284;8.032;2022-12-10T14:29:45;38.33;;;22.40;;
7621;SDS011;3852;52.284;8.032;2022-12-10T14:32:20;39.60;;;22.63;;
7621;SDS011;3852;52.284;8.032;2022-12-10T14:34:55;39.07;;;23.07;;
7621;SDS011;3852;52.284;8.032;2022-12-10T14:37:23;39.43;;;23.43;;
7621;SDS011;3852;52.284;8.032;2022-12-10T14:39:53;39.43;;;23.00;;
7621;SDS011;3852;52.284;8.032;2022-12-10T14:42:19;36.67;;;22.67;;
7621;SDS011;3852;52.284;8.032;2022-12-10T14:44:45;43.03;;;23.10;;
7621;SDS011;3852;52.284;8.032;2022-12-10T14:47:19;40.87;;;22.97;;
7621;SDS011;3852;52.284;8.032;2022-12-10T14:49:50;40.53;;;23.33;;
7621;SDS011;3852;52.284;8.032;2022-12-10T14:52:23;35.23;;;20.67;;
7621;SDS011;3852;52.284;8.032;2022-12-10T14:54:57;39.07;;;21.63;;
7621;SDS011;3852;52.284;8.032;2022-12-10T15:00:03;38.70;;;22.07;;
7621;SDS011;3852;52.284;8.032;2022-12-10T15:02:42;44.23;;;23.83;;
7621;SDS011;3852;52.284;8.032;2022-12-10T15:05:13;40.27;;;23.40;;
7621;SDS011;3852;52.284;8.032;2022-12-10T15:08:29;37.13;;;22.37;;
7621;SDS011;3852;52.284;8.032;2022-12-10T15:10:41;39.40;;;22.83;;
7621;SDS011;3852;52.284;8.032;2022-12-10T15:13:16;37.37;;;22.60;;
7621;SDS011;3852;52.284;8.032;2022-12-10T15:15:49;38.83;;;23.20;;
7621;SDS011;3852;52.284;8.032;2022-12-10T15:18:19;42.03;;;24.83;;
7621;SDS011;3852;52.284;8.032;2022-12-10T15:21:04;39.53;;;22.53;;
7621;SDS011;3852;52.284;8.032;2022-12-10T15:23:42;42.03;;;24.13;;
7621;SDS011;3852;52.284;8.032;2022-12-10T15:28:46;42.63;;;23.30;;
7621;SDS011;3852;52.284;8.032;2022-12-10T15:34:00;45.67;;;25.30;;
7621;SDS011;3852;52.284;8.032;2022-12-10T15:41:45;42.83;;;23.57;;
7621;SDS011;3852;52.284;8.032;2022-12-10T15:44:31;40.63;;;23.10;;
7621;SDS011;3852;52.284;8.032;2022-12-10T15:49:46;44.33;;;23.87;;
7621;SDS011;3852;52.284;8.032;2022-12-10T15:52:15;38.13;;;21.97;;
7621;SDS011;3852;52.284;8.032;2022-12-10T15:54:45;39.17;;;22.20;;
7621;SDS011;3852;52.284;8.032;2022-12-10T15:57:14;41.33;;;22.00;;
7621;SDS011;3852;52.284;8.032;2022-12-10T15:59:54;42.83;;;23.07;;
7621;SDS011;3852;52.284;8.032;2022-12-10T16:05:35;42.33;;;23.13;;
7621;SDS011;3852;52.284;8.032;2022-12-10T16:08:12;43.37;;;23.67;;
7621;SDS011;3852;52.284;8.032;2022-12-10T16:10:48;45.03;;;24.33;;
7621;SDS011;3852;52.284;8.032;2022-12-10T16:15:53;41.13;;;23.77;;
7621;SDS011;3852;52.284;8.032;2022-12-10T16:18:24;41.60;;;23.37;;
7621;SDS011;3852;52.284;8.032;2022-12-10T16:20:50;44.63;;;23.93;;
7621;SDS011;3852;52.284;8.032;2022-12-10T16:23:16;47.17;;;24.30;;
7621;SDS011;3852;52.284;8.032;2022-12-10T16:25:43;44.30;;;24.60;;
7621;SDS011;3852;52.284;8.032;2022-12-10T16:28:17;41.93;;;24.50;;
7621;SDS011;3852;52.284;8.032;2022-12-10T16:30:50;48.33;;;25.93;;
7621;SDS011;3852;52.284;8.032;2022-12-10T16:33:22;53.17;;;28.60;;
7621;SDS011;3852;52.284;8.032;2022-12-10T16:35:50;47.10;;;27.40;;
7621;SDS011;3852;52.284;8.032;2022-12-10T16:38:18;47.80;;;27.00;;
7621;SDS011;3852;52.284;8.032;2022-12-10T16:40:45;48.93;;;27.73;;
7621;SDS011;3852;52.284;8.032;2022-12-10T16:45:57;47.03;;;27.33;;
7621;SDS011;3852;52.284;8.032;2022-12-10T16:48:24;50.93;;;27.83;;
7621;SDS011;3852;52.284;8.032;2022-12-10T16:50:50;46.50;;;27.37;;
7621;SDS011;3852;52.284;8.032;2022-12-10T16:53:18;49.10;;;28.17;;
7621;SDS011;3852;52.284;8.032;2022-12-10T16:55:46;48.77;;;28.07;;
7621;SDS011;3852;52.284;8.032;2022-12-10T16:58:12;47.33;;;27.63;;
7621;SDS011;3852;52.284;8.032;2022-12-10T17:00:40;47.80;;;27.37;;
7621;SDS011;3852;52.284;8.032;2022-12-10T17:03:09;49.87;;;27.93;;
7621;SDS011;3852;52.284;8.032;2022-12-10T17:05:47;54.17;;;28.87;;
7621;SDS011;3852;52.284;8.032;2022-12-10T17:08:34;50.90;;;27.90;;
7621;SDS011;3852;52.284;8.032;2022-12-10T17:11:00;54.07;;;30.07;;
7621;SDS011;3852;52.284;8.032;2022-12-10T17:13:44;51.43;;;29.17;;
7621;SDS011;3852;52.284;8.032;2022-12-10T17:16:15;55.50;;;29.20;;
7621;SDS011;3852;52.284;8.032;2022-12-10T17:18:45;51.03;;;28.47;;
7621;SDS011;3852;52.284;8.032;2022-12-10T17:21:11;62.70;;;31.57;;
7621;SDS011;3852;52.284;8.032;2022-12-10T17:23:36;61.70;;;30.93;;
7621;SDS011;3852;52.284;8.032;2022-12-10T17:26:02;57.87;;;31.73;;
7621;SDS011;3852;52.284;8.032;2022-12-10T17:28:29;61.47;;;31.40;;
7621;SDS011;3852;52.284;8.032;2022-12-10T17:30:56;62.60;;;32.47;;
7621;SDS011;3852;52.284;8.032;2022-12-10T17:33:23;59.27;;;31.20;;